sensor_id;sensor_type;location;lat;lon;timestamp;P1;durP1;ratioP1;P2;durP2;ratioP2
14092;SDS011;7123;49.468;10.992;2023-12-14T00:00:15;5.60;;;4.20;;
14092;SDS011;7123;49.468;10.992;2023-12-14T00:02:42;6.37;;;4.30;;
14092;SDS011;7123;49.468;10.992;2023-12-14T00:05:09;4.63;;;4.13;;
14092;SDS011;7123;49.468;10.992;2023-12-14T00:07:36;4.77;;;4.13;;
14092;SDS011;7123;49.468;10.992;2023-12-14T00:10:03;5.70;;;4.27;;
14092;SDS011;7123;49.468;10.992;2023-12-14T00:12:31;5.53;;;4.10;;
14092;SDS011;7123;49.468;10.992;2023-12-14T00:14:58;5.93;;;4.17;;
14092;SDS011;7123;49.468;10.992;2023-12-14T00:17:25;6.97;;;3.90;;
14092;SDS011;7123;49.468;10.992;2023-12-14T00:19:52;4.40;;;4.00;;
14092;SDS011;7123;49.468;10.992;2023-12-14T00:22:18;4.57;;;3.90;;
14092;SDS011;7123;49.468;10.992;2023-12-14T00:24:45;5.03;;;4.00;;
14092;SDS011;7123;49.468;10.992;2023-12-14T00:27:12;4.90;;;4.03;;
14092;SDS011;7123;49.468;10.992;2023-12-14T00:29:39;6.13;;;4.90;;
14092;SDS011;7123;49.468;10.992;2023-12-14T00:32:05;5.40;;;4.23;;
14092;SDS011;7123;49.468;10.992;2023-12-14T00:34:32;5.73;;;4.53;;
14092;SDS011;7123;49.468;10.992;2023-12-14T00:36:59;6.17;;;4.50;;
14092;SDS011;7123;49.468;10.992;2023-12-14T00:39:26;5.30;;;4.70;;
14092;SDS011;7123;49.468;10.992;2023-12-14T00:41:53;5.20;;;4.23;;
14092;SDS011;7123;49.468;10.992;2023-12-14T00:44:19;11.13;;;4.80;;
14092;SDS011;7123;49.468;10.992;2023-12-14T00:46:46;7.40;;;5.07;;
14092;SDS011;7123;49.468;10.992;2023-12-14T00:49:13;6.47;;;5.03;;
14092;SDS011;7123;49.468;10.992;2023-12-14T00:51:39;7.40;;;4.70;;
14092;SDS011;7123;49.468;10.992;2023-12-14T00:54:06;7.80;;;4.87;;
14092;SDS011;7123;49.468;10.992;2023-12-14T00:56:33;6.53;;;5.53;;
14092;SDS011;7123;49.468;10.992;2023-12-14T00:59:00;6.57;;;5.47;;
14092;SDS011;7123;49.468;10.992;2023-12-14T01:01:27;9.80;;;6.10;;
14092;SDS011;7123;49.468;10.992;2023-12-14T01:03:53;10.03;;;5.47;;
14092;SDS011;7123;49.468;10.992;2023-12-14T01:06:20;7.87;;;6.03;;
14092;SDS011;7123;49.468;10.992;2023-12-14T01:08:47;8.47;;;6.13;;
14092;SDS011;7123;49.468;10.992;2023-12-14T01:11:14;7.10;;;5.47;;
14092;SDS011;7123;49.468;10.992;2023-12-14T01:13:41;6.80;;;5.87;;
14092;SDS011;7123;49.468;10.992;2023-12-14T01:16:08;8.07;;;6.17;;
14092;SDS011;7123;49.468;10.992;2023-12-14T01:18:34;8.80;;;5.90;;
14092;SDS011;7123;49.468;10.992;2023-12-14T01:21:01;9.20;;;6.10;;
14092;SDS011;7123;49.468;10.992;2023-12-14T01:23:28;10.87;;;6.23;;
14092;SDS011;7123;49.468;10.992;2023-12-14T01:25:55;8.47;;;6.13;;
14092;SDS011;7123;49.468;10.992;2023-12-14T01:28:22;7.10;;;6.07;;
14092;SDS011;7123;49.468;10.992;2023-12-14T01:30:49;7.30;;;6.33;;
14092;SDS011;7123;49.468;10.992;2023-12-14T01:33:16;8.73;;;6.23;;
14092;SDS011;7123;49.468;10.992;2023-12-14T01:35:43;8.23;;;5.87;;
14092;SDS011;7123;49.468;10.992;2023-12-14T01:38:09;7.43;;;5.60;;
14092;SDS011;7123;49.468;10.992;2023-12-14T01:40:36;8.90;;;6.07;;
14092;SDS011;7123;49.468;10.992;2023-12-14T01:43:07;8.70;;;6.33;;
14092;SDS011;7123;49.468;10.992;2023-12-14T01:45:35;7.50;;;6.13;;
14092;SDS011;7123;49.468;10.992;2023-12-14T01:48:03;7.20;;;5.77;;
14092;SDS011;7123;49.468;10.992;2023-12-14T01:50:31;7.23;;;5.93;;
14092;SDS011;7123;49.468;10.992;2023-12-14T01:52:58;7.17;;;6.43;;
14092;SDS011;7123;49.468;10.992;2023-12-14T01:55:24;9.00;;;6.80;;
14092;SDS011;7123;49.468;10.992;2023-12-14T01:57:53;8.40;;;6.73;;
14092;SDS011;7123;49.468;10.992;2023-12-14T02:00:22;9.77;;;6.90;;
14092;SDS011;7123;49.468;10.992;2023-12-14T02:03:25;9.17;;;7.00;;
14092;SDS011;7123;49.468;10.992;2023-12-14T02:05:52;10.40;;;6.77;;
14092;SDS011;7123;49.468;10.992;2023-12-14T02:08:19;8.90;;;5.70;;
14092;SDS011;7123;49.468;10.992;2023-12-14T02:10:45;6.97;;;6.03;;
14092;SDS011;7123;49.468;10.992;2023-12-14T02:13:12;8.73;;;6.27;;
14092;SDS011;7123;49.468;10.992;2023-12-14T02:15:39;10.50;;;6.97;;
14092;SDS011;7123;49.468;10.992;2023-12-14T02:18:06;7.50;;;5.40;;
14092;SDS011;7123;49.468;10.992;2023-12-14T02:20:32;11.00;;;7.03;;
14092;SDS011;7123;49.468;10.992;2023-12-14T02:22:59;8.37;;;6.83;;
14092;SDS011;7123;49.468;10.992;2023-12-14T02:25:27;10.47;;;7.40;;
14092;SDS011;7123;49.468;10.992;2023-12-14T02:27:54;11.23;;;7.40;;
14092;SDS011;7123;49.468;10.992;2023-12-14T02:30:21;13.67;;;7.90;;
14092;SDS011;7123;49.468;10.992;2023-12-14T02:32:48;10.53;;;6.67;;
14092;SDS011;7123;49.468;10.992;2023-12-14T02:35:15;11.57;;;7.67;;
14092;SDS011;7123;49.468;10.992;2023-12-14T02:37:41;8.73;;;7.37;;
14092;SDS011;7123;49.468;10.992;2023-12-14T02:40:09;9.33;;;7.20;;
14092;SDS011;7123;49.468;10.992;2023-12-14T02:42:36;13.67;;;8.13;;
14092;SDS011;7123;49.468;10.992;2023-12-14T02:45:03;9.23;;;7.57;;
14092;SDS011;7123;49.468;10.992;2023-12-14T02:47:32;10.53;;;7.83;;
14092;SDS011;7123;49.468;10.992;2023-12-14T02:49:59;14.20;;;7.90;;
14092;SDS011;7123;49.468;10.992;2023-12-14T02:52:25;9.33;;;7.97;;
14092;SDS011;7123;49.468;10.992;2023-12-14T02:54:52;15.17;;;8.17;;
14092;SDS011;7123;49.468;10.992;2023-12-14T02:57:19;9.70;;;7.67;;
14092;SDS011;7123;49.468;10.992;2023-12-14T02:59:46;14.97;;;7.77;;
14092;SDS011;7123;49.468;10.992;2023-12-14T03:02:13;9.13;;;7.63;;
14092;SDS011;7123;49.468;10.992;2023-12-14T03:04:39;11.07;;;8.10;;
14092;SDS011;7123;49.468;10.992;2023-12-14T03:07:06;9.43;;;7.67;;
14092;SDS011;7123;49.468;10.992;2023-12-14T03:09:33;12.07;;;8.97;;
14092;SDS011;7123;49.468;10.992;2023-12-14T03:12:00;12.53;;;8.37;;
14092;SDS011;7123;49.468;10.992;2023-12-14T03:14:31;13.63;;;9.10;;
14092;SDS011;7123;49.468;10.992;2023-12-14T03:16:59;11.70;;;8.77;;
14092;SDS011;7123;49.468;10.992;2023-12-14T03:19:26;13.57;;;9.13;;
14092;SDS011;7123;49.468;10.992;2023-12-14T03:21:53;11.67;;;8.97;;
14092;SDS011;7123;49.468;10.992;2023-12-14T03:24:20;12.47;;;8.47;;
14092;SDS011;7123;49.468;10.992;2023-12-14T03:26:47;12.83;;;8.93;;
14092;SDS011;7123;49.468;10.992;2023-12-14T03:29:14;12.47;;;9.27;;
14092;SDS011;7123;49.468;10.992;2023-12-14T03:31:40;13.00;;;9.00;;
14092;SDS011;7123;49.468;10.992;2023-12-14T03:34:07;13.40;;;8.80;;
14092;SDS011;7123;49.468;10.992;2023-12-14T03:36:34;13.80;;;9.30;;
14092;SDS011;7123;49.468;10.992;2023-12-14T03:39:01;12.10;;;9.13;;
14092;SDS011;7123;49.468;10.992;2023-12-14T03:41:28;11.57;;;9.33;;
14092;SDS011;7123;49.468;10.992;2023-12-14T03:43:54;13.27;;;9.17;;
14092;SDS011;7123;49.468;10.992;2023-12-14T03:46:21;10.83;;;8.53;;
14092;SDS011;7123;49.468;10.992;2023-12-14T03:48:48;9.57;;;8.13;;
14092;SDS011;7123;49.468;10.992;2023-12-14T03:51:19;13.00;;;9.40;;
14092;SDS011;7123;49.468;10.992;2023-12-14T03:53:46;13.20;;;8.83;;
14092;SDS011;7123;49.468;10.992;2023-12-14T03:56:13;11.40;;;8.87;;
14092;SDS011;7123;49.468;10.992;2023-12-14T03:58:40;11.73;;;9.03;;
14092;SDS011;7123;49.468;10.992;2023-12-14T04:01:07;12.60;;;8.30;;
14092;SDS011;7123;49.468;10.992;2023-12-14T04:03:33;10.90;;;8.83;;
14092;SDS011;7123;49.468;10.992;2023-12-14T04:06:00;12.60;;;8.80;;
14092;SDS011;7123;49.468;10.992;2023-12-14T04:08:27;13.53;;;9.47;;
14092;SDS011;7123;49.468;10.992;2023-12-14T04:10:54;13.27;;;9.40;;
14092;SDS011;7123;49.468;10.992;2023-12-14T04:13:20;13.40;;;9.37;;
14092;SDS011;7123;49.468;10.992;2023-12-14T04:15:47;11.37;;;8.83;;
14092;SDS011;7123;49.468;10.992;2023-12-14T04:18:14;12.83;;;9.30;;
14092;SDS011;7123;49.468;10.992;2023-12-14T04:20:41;12.67;;;9.20;;
14092;SDS011;7123;49.468;10.992;2023-12-14T04:23:07;13.23;;;9.43;;
14092;SDS011;7123;49.468;10.992;2023-12-14T04:25:34;11.27;;;8.87;;
14092;SDS011;7123;49.468;10.992;2023-12-14T04:28:01;13.60;;;9.27;;
14092;SDS011;7123;49.468;10.992;2023-12-14T04:30:28;15.80;;;9.83;;
14092;SDS011;7123;49.468;10.992;2023-12-14T04:32:55;15.47;;;10.00;;
14092;SDS011;7123;49.468;10.992;2023-12-14T04:35:21;14.83;;;9.63;;
14092;SDS011;7123;49.468;10.992;2023-12-14T04:37:48;12.63;;;9.00;;
14092;SDS011;7123;49.468;10.992;2023-12-14T04:40:15;12.30;;;9.23;;
14092;SDS011;7123;49.468;10.992;2023-12-14T04:42:42;14.60;;;10.07;;
14092;SDS011;7123;49.468;10.992;2023-12-14T04:45:10;14.27;;;9.80;;
14092;SDS011;7123;49.468;10.992;2023-12-14T04:47:37;12.73;;;9.10;;
14092;SDS011;7123;49.468;10.992;2023-12-14T04:50:04;15.37;;;9.87;;
14092;SDS011;7123;49.468;10.992;2023-12-14T04:52:31;13.23;;;9.70;;
14092;SDS011;7123;49.468;10.992;2023-12-14T04:54:59;13.37;;;9.17;;
14092;SDS011;7123;49.468;10.992;2023-12-14T04:57:26;13.80;;;8.33;;
14092;SDS011;7123;49.468;10.992;2023-12-14T04:59:53;13.93;;;9.40;;
14092;SDS011;7123;49.468;10.992;2023-12-14T05:02:20;13.87;;;9.47;;
14092;SDS011;7123;49.468;10.992;2023-12-14T05:04:46;14.30;;;8.73;;
14092;SDS011;7123;49.468;10.992;2023-12-14T05:07:13;14.13;;;9.43;;
14092;SDS011;7123;49.468;10.992;2023-12-14T05:09:41;12.37;;;9.10;;
14092;SDS011;7123;49.468;10.992;2023-12-14T05:12:08;13.43;;;9.57;;
14092;SDS011;7123;49.468;10.992;2023-12-14T05:14:34;11.03;;;8.53;;
14092;SDS011;7123;49.468;10.992;2023-12-14T05:17:01;15.33;;;9.17;;
14092;SDS011;7123;49.468;10.992;2023-12-14T05:19:28;14.30;;;9.67;;
14092;SDS011;7123;49.468;10.992;2023-12-14T05:21:55;13.30;;;9.43;;
14092;SDS011;7123;49.468;10.992;2023-12-14T05:24:21;11.20;;;9.07;;
14092;SDS011;7123;49.468;10.992;2023-12-14T05:26:48;11.80;;;9.13;;
14092;SDS011;7123;49.468;10.992;2023-12-14T05:29:15;12.13;;;9.57;;
14092;SDS011;7123;49.468;10.992;2023-12-14T05:31:43;14.57;;;9.90;;
14092;SDS011;7123;49.468;10.992;2023-12-14T05:34:10;15.33;;;9.47;;
14092;SDS011;7123;49.468;10.992;2023-12-14T05:36:37;12.37;;;9.00;;
14092;SDS011;7123;49.468;10.992;2023-12-14T05:39:03;14.97;;;10.10;;
14092;SDS011;7123;49.468;10.992;2023-12-14T05:41:30;15.63;;;9.97;;
14092;SDS011;7123;49.468;10.992;2023-12-14T05:43:57;16.57;;;9.90;;
14092;SDS011;7123;49.468;10.992;2023-12-14T05:46:24;13.60;;;9.67;;
14092;SDS011;7123;49.468;10.992;2023-12-14T05:48:51;16.83;;;10.33;;
14092;SDS011;7123;49.468;10.992;2023-12-14T05:53:55;13.33;;;9.57;;
14092;SDS011;7123;49.468;10.992;2023-12-14T05:56:22;15.37;;;10.17;;
14092;SDS011;7123;49.468;10.992;2023-12-14T05:58:49;18.00;;;10.47;;
14092;SDS011;7123;49.468;10.992;2023-12-14T06:01:17;13.13;;;8.73;;
14092;SDS011;7123;49.468;10.992;2023-12-14T06:03:45;13.73;;;9.00;;
14092;SDS011;7123;49.468;10.992;2023-12-14T06:06:12;12.17;;;8.00;;
14092;SDS011;7123;49.468;10.992;2023-12-14T06:08:42;15.33;;;8.70;;
14092;SDS011;7123;49.468;10.992;2023-12-14T06:11:09;12.77;;;9.87;;
14092;SDS011;7123;49.468;10.992;2023-12-14T06:13:36;16.27;;;9.70;;
14092;SDS011;7123;49.468;10.992;2023-12-14T06:16:03;15.07;;;10.20;;
14092;SDS011;7123;49.468;10.992;2023-12-14T06:18:31;14.00;;;9.07;;
14092;SDS011;7123;49.468;10.992;2023-12-14T06:20:58;16.27;;;9.67;;
14092;SDS011;7123;49.468;10.992;2023-12-14T06:23:25;11.93;;;9.17;;
14092;SDS011;7123;49.468;10.992;2023-12-14T06:25:53;17.63;;;9.73;;
14092;SDS011;7123;49.468;10.992;2023-12-14T06:28:20;12.97;;;9.10;;
14092;SDS011;7123;49.468;10.992;2023-12-14T06:30:47;16.17;;;10.37;;
14092;SDS011;7123;49.468;10.992;2023-12-14T06:33:14;13.87;;;10.33;;
14092;SDS011;7123;49.468;10.992;2023-12-14T06:35:41;14.37;;;10.63;;
14092;SDS011;7123;49.468;10.992;2023-12-14T06:38:09;16.50;;;10.53;;
14092;SDS011;7123;49.468;10.992;2023-12-14T06:40:36;13.17;;;9.67;;
14092;SDS011;7123;49.468;10.992;2023-12-14T06:43:06;15.13;;;10.37;;
14092;SDS011;7123;49.468;10.992;2023-12-14T06:45:32;19.83;;;10.13;;
14092;SDS011;7123;49.468;10.992;2023-12-14T06:48:02;16.20;;;9.50;;
14092;SDS011;7123;49.468;10.992;2023-12-14T06:50:29;13.10;;;9.47;;
14092;SDS011;7123;49.468;10.992;2023-12-14T06:52:56;14.77;;;10.10;;
14092;SDS011;7123;49.468;10.992;2023-12-14T06:55:23;13.90;;;9.90;;
14092;SDS011;7123;49.468;10.992;2023-12-14T06:57:49;15.90;;;10.90;;
14092;SDS011;7123;49.468;10.992;2023-12-14T07:00:16;15.03;;;10.17;;
14092;SDS011;7123;49.468;10.992;2023-12-14T07:02:43;13.33;;;10.17;;
14092;SDS011;7123;49.468;10.992;2023-12-14T07:05:10;11.00;;;8.80;;
14092;SDS011;7123;49.468;10.992;2023-12-14T07:07:37;16.23;;;9.60;;
14092;SDS011;7123;49.468;10.992;2023-12-14T07:10:04;17.63;;;10.83;;
14092;SDS011;7123;49.468;10.992;2023-12-14T07:12:31;17.03;;;8.60;;
14092;SDS011;7123;49.468;10.992;2023-12-14T07:14:59;17.43;;;9.73;;
14092;SDS011;7123;49.468;10.992;2023-12-14T07:17:26;14.63;;;9.97;;
14092;SDS011;7123;49.468;10.992;2023-12-14T07:19:53;17.33;;;10.30;;
14092;SDS011;7123;49.468;10.992;2023-12-14T07:22:24;11.53;;;8.63;;
14092;SDS011;7123;49.468;10.992;2023-12-14T07:24:50;17.63;;;10.90;;
14092;SDS011;7123;49.468;10.992;2023-12-14T07:27:24;16.20;;;11.13;;
14092;SDS011;7123;49.468;10.992;2023-12-14T07:29:51;16.27;;;10.67;;
14092;SDS011;7123;49.468;10.992;2023-12-14T07:32:18;13.93;;;10.60;;
14092;SDS011;7123;49.468;10.992;2023-12-14T07:34:45;18.17;;;10.77;;
14092;SDS011;7123;49.468;10.992;2023-12-14T07:37:12;14.70;;;10.63;;
14092;SDS011;7123;49.468;10.992;2023-12-14T07:39:39;14.27;;;9.87;;
14092;SDS011;7123;49.468;10.992;2023-12-14T07:42:05;16.87;;;10.00;;
14092;SDS011;7123;49.468;10.992;2023-12-14T07:44:32;17.50;;;11.07;;
14092;SDS011;7123;49.468;10.992;2023-12-14T07:46:59;16.47;;;10.80;;
14092;SDS011;7123;49.468;10.992;2023-12-14T07:49:26;16.87;;;11.10;;
14092;SDS011;7123;49.468;10.992;2023-12-14T07:51:53;16.93;;;10.97;;
14092;SDS011;7123;49.468;10.992;2023-12-14T07:54:20;17.00;;;11.50;;
14092;SDS011;7123;49.468;10.992;2023-12-14T07:56:48;19.17;;;11.67;;
14092;SDS011;7123;49.468;10.992;2023-12-14T07:59:15;21.47;;;11.67;;
14092;SDS011;7123;49.468;10.992;2023-12-14T08:01:42;20.93;;;12.43;;
14092;SDS011;7123;49.468;10.992;2023-12-14T08:04:08;16.93;;;11.97;;
14092;SDS011;7123;49.468;10.992;2023-12-14T08:06:37;16.17;;;11.50;;
14092;SDS011;7123;49.468;10.992;2023-12-14T08:09:07;17.83;;;10.90;;
14092;SDS011;7123;49.468;10.992;2023-12-14T08:11:34;18.37;;;12.10;;
14092;SDS011;7123;49.468;10.992;2023-12-14T08:14:01;16.23;;;11.37;;
14092;SDS011;7123;49.468;10.992;2023-12-14T08:16:29;17.67;;;11.00;;
14092;SDS011;7123;49.468;10.992;2023-12-14T08:18:56;18.13;;;11.63;;
14092;SDS011;7123;49.468;10.992;2023-12-14T08:21:23;15.50;;;11.37;;
14092;SDS011;7123;49.468;10.992;2023-12-14T08:23:50;16.70;;;11.50;;
14092;SDS011;7123;49.468;10.992;2023-12-14T08:26:17;19.53;;;11.60;;
14092;SDS011;7123;49.468;10.992;2023-12-14T08:28:44;19.20;;;12.40;;
14092;SDS011;7123;49.468;10.992;2023-12-14T08:31:11;14.50;;;11.10;;
14092;SDS011;7123;49.468;10.992;2023-12-14T08:33:40;18.07;;;11.37;;
14092;SDS011;7123;49.468;10.992;2023-12-14T08:36:15;17.03;;;11.43;;
14092;SDS011;7123;49.468;10.992;2023-12-14T08:38:42;20.90;;;12.80;;
14092;SDS011;7123;49.468;10.992;2023-12-14T08:41:13;18.93;;;12.87;;
14092;SDS011;7123;49.468;10.992;2023-12-14T08:43:41;22.93;;;13.53;;
14092;SDS011;7123;49.468;10.992;2023-12-14T08:46:09;18.90;;;13.00;;
14092;SDS011;7123;49.468;10.992;2023-12-14T08:48:39;19.57;;;12.63;;
14092;SDS011;7123;49.468;10.992;2023-12-14T08:51:06;19.90;;;12.50;;
14092;SDS011;7123;49.468;10.992;2023-12-14T08:53:32;19.67;;;12.63;;
14092;SDS011;7123;49.468;10.992;2023-12-14T08:55:59;21.67;;;12.50;;
14092;SDS011;7123;49.468;10.992;2023-12-14T08:58:26;22.30;;;12.80;;
14092;SDS011;7123;49.468;10.992;2023-12-14T09:00:53;24.80;;;13.20;;
14092;SDS011;7123;49.468;10.992;2023-12-14T09:03:20;19.20;;;12.53;;
14092;SDS011;7123;49.468;10.992;2023-12-14T09:05:47;18.80;;;12.23;;
14092;SDS011;7123;49.468;10.992;2023-12-14T09:08:14;20.33;;;12.33;;
14092;SDS011;7123;49.468;10.992;2023-12-14T09:10:41;18.97;;;11.77;;
14092;SDS011;7123;49.468;10.992;2023-12-14T09:13:08;21.90;;;11.67;;
14092;SDS011;7123;49.468;10.992;2023-12-14T09:15:34;18.40;;;12.23;;
14092;SDS011;7123;49.468;10.992;2023-12-14T09:18:02;15.47;;;11.57;;
14092;SDS011;7123;49.468;10.992;2023-12-14T09:20:29;18.23;;;11.27;;
14092;SDS011;7123;49.468;10.992;2023-12-14T09:22:56;14.87;;;11.07;;
14092;SDS011;7123;49.468;10.992;2023-12-14T09:25:23;20.33;;;12.20;;
14092;SDS011;7123;49.468;10.992;2023-12-14T09:27:50;17.13;;;11.67;;
14092;SDS011;7123;49.468;10.992;2023-12-14T09:30:17;19.33;;;12.13;;
14092;SDS011;7123;49.468;10.992;2023-12-14T09:32:44;20.80;;;12.10;;
14092;SDS011;7123;49.468;10.992;2023-12-14T09:35:11;17.87;;;11.73;;
14092;SDS011;7123;49.468;10.992;2023-12-14T09:37:37;18.30;;;11.40;;
14092;SDS011;7123;49.468;10.992;2023-12-14T09:40:05;17.13;;;11.83;;
14092;SDS011;7123;49.468;10.992;2023-12-14T09:42:37;20.03;;;12.40;;
14092;SDS011;7123;49.468;10.992;2023-12-14T09:45:06;17.33;;;11.40;;
14092;SDS011;7123;49.468;10.992;2023-12-14T09:47:35;18.13;;;11.50;;
14092;SDS011;7123;49.468;10.992;2023-12-14T09:50:03;16.00;;;10.57;;
14092;SDS011;7123;49.468;10.992;2023-12-14T09:52:31;16.20;;;11.60;;
14092;SDS011;7123;49.468;10.992;2023-12-14T09:54:59;18.10;;;11.67;;
14092;SDS011;7123;49.468;10.992;2023-12-14T09:57:26;13.17;;;9.73;;
14092;SDS011;7123;49.468;10.992;2023-12-14T09:59:53;15.20;;;9.60;;
14092;SDS011;7123;49.468;10.992;2023-12-14T10:02:24;15.97;;;10.17;;
14092;SDS011;7123;49.468;10.992;2023-12-14T10:04:53;15.40;;;10.30;;
14092;SDS011;7123;49.468;10.992;2023-12-14T10:07:23;19.33;;;10.97;;
14092;SDS011;7123;49.468;10.992;2023-12-14T10:09:50;16.30;;;11.03;;
14092;SDS011;7123;49.468;10.992;2023-12-14T10:12:19;14.70;;;10.30;;
14092;SDS011;7123;49.468;10.992;2023-12-14T10:14:47;16.00;;;10.50;;
14092;SDS011;7123;49.468;10.992;2023-12-14T10:17:27;15.13;;;10.03;;
14092;SDS011;7123;49.468;10.992;2023-12-14T10:19:59;21.30;;;11.37;;
14092;SDS011;7123;49.468;10.992;2023-12-14T10:22:30;17.70;;;10.17;;
14092;SDS011;7123;49.468;10.992;2023-12-14T10:24:58;17.63;;;10.93;;
14092;SDS011;7123;49.468;10.992;2023-12-14T10:27:27;15.70;;;10.37;;
14092;SDS011;7123;49.468;10.992;2023-12-14T10:29:55;15.27;;;9.90;;
14092;SDS011;7123;49.468;10.992;2023-12-14T10:32:23;16.63;;;10.13;;
14092;SDS011;7123;49.468;10.992;2023-12-14T10:34:50;16.97;;;11.03;;
14092;SDS011;7123;49.468;10.992;2023-12-14T10:37:17;19.70;;;10.80;;
14092;SDS011;7123;49.468;10.992;2023-12-14T10:39:44;17.43;;;10.97;;
14092;SDS011;7123;49.468;10.992;2023-12-14T10:42:12;15.90;;;10.73;;
14092;SDS011;7123;49.468;10.992;2023-12-14T10:44:46;16.83;;;10.77;;
14092;SDS011;7123;49.468;10.992;2023-12-14T10:47:21;15.57;;;9.80;;
14092;SDS011;7123;49.468;10.992;2023-12-14T10:49:49;16.77;;;10.37;;
14092;SDS011;7123;49.468;10.992;2023-12-14T10:52:17;15.87;;;10.20;;
14092;SDS011;7123;49.468;10.992;2023-12-14T10:54:45;15.20;;;9.43;;
14092;SDS011;7123;49.468;10.992;2023-12-14T10:57:15;14.50;;;10.07;;
14092;SDS011;7123;49.468;10.992;2023-12-14T10:59:42;14.07;;;10.03;;
14092;SDS011;7123;49.468;10.992;2023-12-14T11:02:09;17.83;;;9.90;;
14092;SDS011;7123;49.468;10.992;2023-12-14T11:04:53;17.87;;;10.10;;
14092;SDS011;7123;49.468;10.992;2023-12-14T11:08:00;15.87;;;9.43;;
14092;SDS011;7123;49.468;10.992;2023-12-14T11:10:28;14.20;;;9.17;;
14092;SDS011;7123;49.468;10.992;2023-12-14T11:13:02;13.07;;;9.33;;
14092;SDS011;7123;49.468;10.992;2023-12-14T11:15:35;14.23;;;10.20;;
14092;SDS011;7123;49.468;10.992;2023-12-14T11:18:20;12.77;;;9.43;;
14092;SDS011;7123;49.468;10.992;2023-12-14T11:20:49;16.40;;;10.07;;
14092;SDS011;7123;49.468;10.992;2023-12-14T11:26:01;15.77;;;9.77;;
14092;SDS011;7123;49.468;10.992;2023-12-14T11:28:32;12.40;;;9.07;;
14092;SDS011;7123;49.468;10.992;2023-12-14T11:31:01;13.37;;;8.43;;
14092;SDS011;7123;49.468;10.992;2023-12-14T11:33:33;15.23;;;8.87;;
14092;SDS011;7123;49.468;10.992;2023-12-14T11:36:03;13.70;;;9.37;;
14092;SDS011;7123;49.468;10.992;2023-12-14T11:38:32;14.23;;;8.77;;
14092;SDS011;7123;49.468;10.992;2023-12-14T11:40:58;15.07;;;8.43;;
14092;SDS011;7123;49.468;10.992;2023-12-14T11:43:26;12.37;;;7.83;;
14092;SDS011;7123;49.468;10.992;2023-12-14T11:45:53;9.80;;;6.63;;
14092;SDS011;7123;49.468;10.992;2023-12-14T11:48:21;12.00;;;8.03;;
14092;SDS011;7123;49.468;10.992;2023-12-14T11:50:48;10.97;;;7.47;;
14092;SDS011;7123;49.468;10.992;2023-12-14T11:53:15;12.13;;;6.77;;
14092;SDS011;7123;49.468;10.992;2023-12-14T11:55:42;9.50;;;6.87;;
14092;SDS011;7123;49.468;10.992;2023-12-14T11:58:12;10.93;;;7.17;;
14092;SDS011;7123;49.468;10.992;2023-12-14T12:00:42;14.87;;;7.77;;
14092;SDS011;7123;49.468;10.992;2023-12-14T12:05:41;13.47;;;8.10;;
14092;SDS011;7123;49.468;10.992;2023-12-14T12:08:09;12.47;;;8.27;;
14092;SDS011;7123;49.468;10.992;2023-12-14T12:10:38;11.93;;;7.80;;
14092;SDS011;7123;49.468;10.992;2023-12-14T12:13:15;12.17;;;7.17;;
14092;SDS011;7123;49.468;10.992;2023-12-14T12:15:43;11.90;;;7.13;;
14092;SDS011;7123;49.468;10.992;2023-12-14T12:18:11;9.90;;;6.37;;
14092;SDS011;7123;49.468;10.992;2023-12-14T12:20:40;8.63;;;6.80;;
14092;SDS011;7123;49.468;10.992;2023-12-14T12:23:07;13.53;;;7.67;;
14092;SDS011;7123;49.468;10.992;2023-12-14T12:25:34;9.83;;;6.60;;
14092;SDS011;7123;49.468;10.992;2023-12-14T12:28:02;12.67;;;7.20;;
14092;SDS011;7123;49.468;10.992;2023-12-14T12:30:35;11.07;;;6.93;;
14092;SDS011;7123;49.468;10.992;2023-12-14T12:33:06;11.43;;;6.60;;
14092;SDS011;7123;49.468;10.992;2023-12-14T12:35:33;11.20;;;7.37;;
14092;SDS011;7123;49.468;10.992;2023-12-14T12:38:01;13.13;;;7.93;;
14092;SDS011;7123;49.468;10.992;2023-12-14T12:40:28;12.60;;;8.17;;
14092;SDS011;7123;49.468;10.992;2023-12-14T12:42:57;13.37;;;7.73;;
14092;SDS011;7123;49.468;10.992;2023-12-14T12:45:24;12.07;;;7.90;;
14092;SDS011;7123;49.468;10.992;2023-12-14T12:47:55;11.20;;;7.17;;
14092;SDS011;7123;49.468;10.992;2023-12-14T12:50:22;11.73;;;8.13;;
14092;SDS011;7123;49.468;10.992;2023-12-14T12:52:50;11.60;;;8.27;;
14092;SDS011;7123;49.468;10.992;2023-12-14T12:55:18;10.93;;;7.97;;
14092;SDS011;7123;49.468;10.992;2023-12-14T12:57:44;14.20;;;9.23;;
14092;SDS011;7123;49.468;10.992;2023-12-14T13:00:13;13.63;;;8.23;;
14092;SDS011;7123;49.468;10.992;2023-12-14T13:02:40;11.17;;;7.93;;
14092;SDS011;7123;49.468;10.992;2023-12-14T13:05:08;18.10;;;8.67;;
14092;SDS011;7123;49.468;10.992;2023-12-14T13:07:43;13.50;;;9.00;;
14092;SDS011;7123;49.468;10.992;2023-12-14T13:10:11;11.73;;;7.97;;
14092;SDS011;7123;49.468;10.992;2023-12-14T13:12:54;14.50;;;8.53;;
14092;SDS011;7123;49.468;10.992;2023-12-14T13:15:21;11.97;;;8.43;;
14092;SDS011;7123;49.468;10.992;2023-12-14T13:17:53;14.30;;;8.23;;
14092;SDS011;7123;49.468;10.992;2023-12-14T13:20:21;13.03;;;8.37;;
14092;SDS011;7123;49.468;10.992;2023-12-14T13:22:48;17.13;;;9.13;;
14092;SDS011;7123;49.468;10.992;2023-12-14T13:25:16;15.87;;;9.17;;
14092;SDS011;7123;49.468;10.992;2023-12-14T13:27:43;12.87;;;8.80;;
14092;SDS011;7123;49.468;10.992;2023-12-14T13:30:10;16.63;;;8.17;;
14092;SDS011;7123;49.468;10.992;2023-12-14T13:32:37;14.53;;;8.97;;
14092;SDS011;7123;49.468;10.992;2023-12-14T13:35:04;12.47;;;8.70;;
14092;SDS011;7123;49.468;10.992;2023-12-14T13:37:32;13.20;;;7.27;;
14092;SDS011;7123;49.468;10.992;2023-12-14T13:40:00;13.57;;;8.07;;
14092;SDS011;7123;49.468;10.992;2023-12-14T13:42:27;15.97;;;9.03;;
14092;SDS011;7123;49.468;10.992;2023-12-14T13:44:54;18.23;;;8.30;;
14092;SDS011;7123;49.468;10.992;2023-12-14T13:47:21;12.07;;;7.90;;
14092;SDS011;7123;49.468;10.992;2023-12-14T13:49:48;13.83;;;8.30;;
14092;SDS011;7123;49.468;10.992;2023-12-14T13:52:15;11.00;;;7.27;;
14092;SDS011;7123;49.468;10.992;2023-12-14T13:54:42;8.33;;;4.70;;
14092;SDS011;7123;49.468;10.992;2023-12-14T13:57:09;9.43;;;5.87;;
14092;SDS011;7123;49.468;10.992;2023-12-14T13:59:35;8.53;;;5.33;;
14092;SDS011;7123;49.468;10.992;2023-12-14T14:02:02;4.83;;;4.20;;
14092;SDS011;7123;49.468;10.992;2023-12-14T14:04:29;4.93;;;4.20;;
14092;SDS011;7123;49.468;10.992;2023-12-14T14:06:56;7.03;;;5.10;;
14092;SDS011;7123;49.468;10.992;2023-12-14T14:09:23;6.90;;;4.87;;
14092;SDS011;7123;49.468;10.992;2023-12-14T14:11:49;8.47;;;3.90;;
14092;SDS011;7123;49.468;10.992;2023-12-14T14:14:17;4.20;;;3.40;;
14092;SDS011;7123;49.468;10.992;2023-12-14T14:16:45;4.17;;;3.33;;
14092;SDS011;7123;49.468;10.992;2023-12-14T14:19:12;3.90;;;2.80;;
14092;SDS011;7123;49.468;10.992;2023-12-14T14:21:38;3.90;;;2.80;;
14092;SDS011;7123;49.468;10.992;2023-12-14T14:24:05;4.17;;;3.13;;
14092;SDS011;7123;49.468;10.992;2023-12-14T14:26:32;4.47;;;3.10;;
14092;SDS011;7123;49.468;10.992;2023-12-14T14:28:59;5.47;;;3.73;;
14092;SDS011;7123;49.468;10.992;2023-12-14T14:31:28;3.80;;;3.30;;
14092;SDS011;7123;49.468;10.992;2023-12-14T14:34:00;5.00;;;3.63;;
14092;SDS011;7123;49.468;10.992;2023-12-14T14:36:27;3.60;;;3.30;;
14092;SDS011;7123;49.468;10.992;2023-12-14T14:38:54;4.63;;;3.60;;
14092;SDS011;7123;49.468;10.992;2023-12-14T14:41:23;3.80;;;3.40;;
14092;SDS011;7123;49.468;10.992;2023-12-14T14:43:50;6.67;;;3.67;;